MOL Emerald — VRFB8 — position and weather

sailwx.info

Track history (hours):
 
Tides and Currents Weather Stations Pressure Air Temp Water Temp Dewpoint Dewpoint Depression Visibility Wind Speed Wind Dir Waves Ship Positions

MOL Emerald

Last reported at 2018-Jul-16 01:21 UTC. Time now 2018-Jul-22 01:12 UTC.
Position N 01°29' E 104°33'.

Length 294 m; draft 12.2 m.

Type: Ship (hazmat cat A). MMSI: 477207700.

Date/timePositionNaut miles runAvg speedWind from/ knotsBaromVisibWave heightAir tempDewpointWater temp
2018-Jul-16 01:21N 01°29' E 104°33'819.3
2018-Jul-16 00:55N 01°24' E 104°27'818.6
2018-Jul-16 00:30N 01°18' E 104°21'917.6
2018-Jul-15 23:58N 01°16' E 104°12'818.0
2018-Jul-15 23:30N 01°15' E 104°04'816.7
2018-Jul-15 23:00N 01°13' E 103°56'713.6
2018-Jul-15 22:31N 01°12' E 103°49'5 9.4
2018-Jul-15 22:00N 01°16' E 103°47'0 1.0
2018-Jul-15 21:30N 01°17' E 103°47'0 0.0
2018-Jul-15 21:00N 01°17' E 103°47'0 0.0
2018-Jul-15 20:30N 01°17' E 103°47'0 0.0
2018-Jul-15 20:00N 01°17' E 103°47'0 0.0
2018-Jul-15 19:30N 01°17' E 103°47'0 0.0
2018-Jul-15 19:00N 01°17' E 103°47'0 0.0
2018-Jul-15 18:30N 01°17' E 103°47'0 0.0
2018-Jul-15 18:00N 01°17' E 103°47'0 0.0
2018-Jul-15 17:30N 01°17' E 103°47'0 0.0
2018-Jul-15 17:00N 01°17' E 103°47'0 0.0
2018-Jul-15 16:30N 01°17' E 103°47'0 0.0
2018-Jul-15 16:00N 01°17' E 103°47'0 0.0
2018-Jul-15 15:30N 01°17' E 103°47'0 0.0
2018-Jul-15 15:00N 01°17' E 103°47'0 0.0
2018-Jul-15 14:24N 01°17' E 103°47'0 0.0
2018-Jul-15 13:55N 01°17' E 103°47'0 0.0
2018-Jul-15 13:30N 01°17' E 103°47'0 0.0
2018-Jul-15 13:00N 01°17' E 103°47'0 0.0
2018-Jul-15 12:30N 01°17' E 103°47'0 0.0
2018-Jul-15 12:00N 01°17' E 103°47'0 0.1
2018-Jul-15 11:30N 01°17' E 103°47'0 0.1
2018-Jul-15 11:00N 01°17' E 103°47'0 0.0
2018-Jul-15 10:30N 01°17' E 103°47'0 0.0
2018-Jul-15 10:00N 01°17' E 103°47'0 0.0
2018-Jul-15 09:30N 01°17' E 103°47'0 0.0
2018-Jul-15 09:00N 01°17' E 103°47'0 0.1
2018-Jul-15 08:30N 01°17' E 103°47'0 0.1
2018-Jul-15 08:00N 01°17' E 103°47'0 0.0
2018-Jul-15 07:30N 01°17' E 103°47'0 0.0
2018-Jul-15 07:00N 01°17' E 103°47'0 0.0
2018-Jul-15 06:25N 01°17' E 103°47'0 0.0
2018-Jul-15 06:00N 01°17' E 103°47'0 0.0
2018-Jul-15 05:30N 01°17' E 103°47'0 0.0
2018-Jul-15 05:00N 01°17' E 103°47'0 0.0
2018-Jul-15 04:30N 01°17' E 103°47'0 0.0
2018-Jul-15 03:58N 01°17' E 103°47'0 0.0
2018-Jul-15 03:30N 01°17' E 103°47'0 0.0
2018-Jul-15 03:00N 01°17' E 103°47'0 0.0
2018-Jul-15 02:30N 01°17' E 103°47'0 0.0
2018-Jul-15 02:00N 01°17' E 103°47'0 0.0
2018-Jul-15 01:30N 01°17' E 103°47'0 0.0
2018-Jul-15 01:00N 01°17' E 103°47'0 0.0
2018-Jul-15 00:30N 01°17' E 103°47'0 0.0
2018-Jul-15 00:00N 01°17' E 103°47'0 0.3
2018-Jul-14 23:30N 01°16' E 103°47'3 6.1
2018-Jul-14 23:00N 01°15' E 103°44'612.4
2018-Jul-14 22:31N 01°12' E 103°39'5 9.7
2018-Jul-14 21:59N 01°11' E 103°34'714.8
2018-Jul-14 21:30N 01°11' E 103°26'918.7
2018-Jul-14 21:01N 01°17' E 103°19'612.6
2018-Jul-14 20:30N 01°20' E 103°14'610.6
2018-Jul-14 19:59N 01°24' E 103°09'610.8
2018-Jul-14 19:26N 01°27' E 103°04'16 0.4
2018-Jul-13 04:09N 01°20' E 103°19'214.7
2018-Jul-13 03:59N 01°18' E 103°21'714.4
2018-Jul-13 03:30N 01°14' E 103°27'714.6
2018-Jul-13 03:00N 01°12' E 103°34'611.8
2018-Jul-13 02:30N 01°12' E 103°39'4 7.9
2018-Jul-13 02:00N 01°15' E 103°43'5 9.4
2018-Jul-13 01:30N 01°16' E 103°47'0 0.3
2018-Jul-13 00:58N 01°16' E 103°47'0 0.0
2018-Jul-13 00:29N 01°16' E 103°47'0 0.0
2018-Jul-12 23:59N 01°16' E 103°47'0 0.0
2018-Jul-12 23:28N 01°16' E 103°47'0 0.0
2018-Jul-12 22:59N 01°16' E 103°47'0 0.0
2018-Jul-12 22:25N 01°16' E 103°47'0 0.0
2018-Jul-12 21:55N 01°16' E 103°47'0 0.0
2018-Jul-12 21:25N 01°16' E 103°47'0 0.0
2018-Jul-12 20:56N 01°16' E 103°47'0 0.0
2018-Jul-12 20:29N 01°16' E 103°47'0 0.0
2018-Jul-12 19:58N 01°16' E 103°47'0 0.0
2018-Jul-12 19:26N 01°16' E 103°47'0 0.0
2018-Jul-12 18:59N 01°16' E 103°47'0 0.0
2018-Jul-12 18:29N 01°16' E 103°47'0 0.0
2018-Jul-12 17:59N 01°16' E 103°47'0 0.0
2018-Jul-12 17:29N 01°16' E 103°47'0 0.0
2018-Jul-12 16:59N 01°16' E 103°47'0 0.0
2018-Jul-12 16:29N 01°16' E 103°47'0 0.0
2018-Jul-12 15:56N 01°16' E 103°47'0 0.0
2018-Jul-12 15:28N 01°16' E 103°47'0 0.0
2018-Jul-12 14:59N 01°16' E 103°47'0 0.0
2018-Jul-12 14:29N 01°16' E 103°47'0 0.0
2018-Jul-12 13:59N 01°16' E 103°47'0 0.0
2018-Jul-12 13:29N 01°16' E 103°47'0 0.0
2018-Jul-12 12:58N 01°16' E 103°47'0 0.0
2018-Jul-12 12:29N 01°16' E 103°47'0 0.0
2018-Jul-12 11:59N 01°16' E 103°47'0 0.0
2018-Jul-12 11:28N 01°16' E 103°47'0 0.0
2018-Jul-12 10:58N 01°16' E 103°47'0 0.0
2018-Jul-12 10:29N 01°16' E 103°47'0 0.0
2018-Jul-12 09:59N 01°16' E 103°47'0 0.0
2018-Jul-12 09:29N 01°16' E 103°47'0 0.0
2018-Jul-12 08:58N 01°16' E 103°47'0 0.0
2018-Jul-12 08:29N 01°16' E 103°47'0 0.0
2018-Jul-12 07:58N 01°16' E 103°47'0 0.0
2018-Jul-12 07:28N 01°16' E 103°47'0 0.0
2018-Jul-12 06:58N 01°16' E 103°47'0 0.0
2018-Jul-12 06:29N 01°16' E 103°47'0 0.0
2018-Jul-12 05:59N 01°16' E 103°47'0 0.0
2018-Jul-12 05:28N 01°16' E 103°47'0 0.0
2018-Jul-12 04:59N 01°16' E 103°47'0 0.0
2018-Jul-12 04:29N 01°16' E 103°47'0 0.0
2018-Jul-12 03:58N 01°16' E 103°47'0 0.0
2018-Jul-12 03:29N 01°16' E 103°47'0 0.0
2018-Jul-12 02:59N 01°16' E 103°47'0 1.0
2018-Jul-12 02:30N 01°16' E 103°47'3 6.9
2018-Jul-12 02:01N 01°13' E 103°48'510.7
2018-Jul-12 01:31N 01°13' E 103°54'510.4
2018-Jul-12 01:00N 01°15' E 103°59'510.2
2018-Jul-12 00:30N 01°16' E 104°04'612.1
2018-Jul-12 00:00N 01°17' E 104°10'612.5
2018-Jul-11 23:30N 01°18' E 104°16'712.6
2018-Jul-11 22:56N 01°21' E 104°22'  
2018-Jul-08 21:43N 22°19' E 114°07'  
Track history (hours):
 
Tides and Currents Weather Stations Pressure Air Temp Water Temp Dewpoint Dewpoint Depression Visibility Wind Speed Wind Dir Waves Ship Positions

MOL Emerald

Last reported at 2018-Jul-16 01:21 UTC. Time now 2018-Jul-22 01:12 UTC.
Position N 01°29' E 104°33'.

Length 294 m; draft 12.2 m.

Type: Ship (hazmat cat A). MMSI: 477207700.

Date/timePositionNaut miles runAvg speedWind from/ knotsBaromVisibWave heightAir tempDewpointWater temp
2018-Jul-16 01:21N 01°29' E 104°33'819.3
2018-Jul-16 00:55N 01°24' E 104°27'818.6
2018-Jul-16 00:30N 01°18' E 104°21'917.6
2018-Jul-15 23:58N 01°16' E 104°12'818.0
2018-Jul-15 23:30N 01°15' E 104°04'816.7
2018-Jul-15 23:00N 01°13' E 103°56'713.6
2018-Jul-15 22:31N 01°12' E 103°49'5 9.4
2018-Jul-15 22:00N 01°16' E 103°47'0 1.0
2018-Jul-15 21:30N 01°17' E 103°47'0 0.0
2018-Jul-15 21:00N 01°17' E 103°47'0 0.0
2018-Jul-15 20:30N 01°17' E 103°47'0 0.0
2018-Jul-15 20:00N 01°17' E 103°47'0 0.0
2018-Jul-15 19:30N 01°17' E 103°47'0 0.0
2018-Jul-15 19:00N 01°17' E 103°47'0 0.0
2018-Jul-15 18:30N 01°17' E 103°47'0 0.0
2018-Jul-15 18:00N 01°17' E 103°47'0 0.0
2018-Jul-15 17:30N 01°17' E 103°47'0 0.0
2018-Jul-15 17:00N 01°17' E 103°47'0 0.0
2018-Jul-15 16:30N 01°17' E 103°47'0 0.0
2018-Jul-15 16:00N 01°17' E 103°47'0 0.0
2018-Jul-15 15:30N 01°17' E 103°47'0 0.0
2018-Jul-15 15:00N 01°17' E 103°47'0 0.0
2018-Jul-15 14:24N 01°17' E 103°47'0 0.0
2018-Jul-15 13:55N 01°17' E 103°47'0 0.0
2018-Jul-15 13:30N 01°17' E 103°47'0 0.0
2018-Jul-15 13:00N 01°17' E 103°47'0 0.0
2018-Jul-15 12:30N 01°17' E 103°47'0 0.0
2018-Jul-15 12:00N 01°17' E 103°47'0 0.1
2018-Jul-15 11:30N 01°17' E 103°47'0 0.1
2018-Jul-15 11:00N 01°17' E 103°47'0 0.0
2018-Jul-15 10:30N 01°17' E 103°47'0 0.0
2018-Jul-15 10:00N 01°17' E 103°47'0 0.0
2018-Jul-15 09:30N 01°17' E 103°47'0 0.0
2018-Jul-15 09:00N 01°17' E 103°47'0 0.1
2018-Jul-15 08:30N 01°17' E 103°47'0 0.1
2018-Jul-15 08:00N 01°17' E 103°47'0 0.0
2018-Jul-15 07:30N 01°17' E 103°47'0 0.0
2018-Jul-15 07:00N 01°17' E 103°47'0 0.0
2018-Jul-15 06:25N 01°17' E 103°47'0 0.0
2018-Jul-15 06:00N 01°17' E 103°47'0 0.0
2018-Jul-15 05:30N 01°17' E 103°47'0 0.0
2018-Jul-15 05:00N 01°17' E 103°47'0 0.0
2018-Jul-15 04:30N 01°17' E 103°47'0 0.0
2018-Jul-15 03:58N 01°17' E 103°47'0 0.0
2018-Jul-15 03:30N 01°17' E 103°47'0 0.0
2018-Jul-15 03:00N 01°17' E 103°47'0 0.0
2018-Jul-15 02:30N 01°17' E 103°47'0 0.0
2018-Jul-15 02:00N 01°17' E 103°47'0 0.0
2018-Jul-15 01:30N 01°17' E 103°47'0 0.0
2018-Jul-15 01:00N 01°17' E 103°47'0 0.0
2018-Jul-15 00:30N 01°17' E 103°47'0 0.0
2018-Jul-15 00:00N 01°17' E 103°47'0 0.3
2018-Jul-14 23:30N 01°16' E 103°47'3 6.1
2018-Jul-14 23:00N 01°15' E 103°44'612.4
2018-Jul-14 22:31N 01°12' E 103°39'5 9.7
2018-Jul-14 21:59N 01°11' E 103°34'714.8
2018-Jul-14 21:30N 01°11' E 103°26'918.7
2018-Jul-14 21:01N 01°17' E 103°19'612.6
2018-Jul-14 20:30N 01°20' E 103°14'610.6
2018-Jul-14 19:59N 01°24' E 103°09'610.8
2018-Jul-14 19:26N 01°27' E 103°04'16 0.4
2018-Jul-13 04:09N 01°20' E 103°19'214.7
2018-Jul-13 03:59N 01°18' E 103°21'714.4
2018-Jul-13 03:30N 01°14' E 103°27'714.6
2018-Jul-13 03:00N 01°12' E 103°34'611.8
2018-Jul-13 02:30N 01°12' E 103°39'4 7.9
2018-Jul-13 02:00N 01°15' E 103°43'5 9.4
2018-Jul-13 01:30N 01°16' E 103°47'0 0.3
2018-Jul-13 00:58N 01°16' E 103°47'0 0.0
2018-Jul-13 00:29N 01°16' E 103°47'0 0.0
2018-Jul-12 23:59N 01°16' E 103°47'0 0.0
2018-Jul-12 23:28N 01°16' E 103°47'0 0.0
2018-Jul-12 22:59N 01°16' E 103°47'0 0.0
2018-Jul-12 22:25N 01°16' E 103°47'0 0.0
2018-Jul-12 21:55N 01°16' E 103°47'0 0.0
2018-Jul-12 21:25N 01°16' E 103°47'0 0.0
2018-Jul-12 20:56N 01°16' E 103°47'0 0.0
2018-Jul-12 20:29N 01°16' E 103°47'0 0.0
2018-Jul-12 19:58N 01°16' E 103°47'0 0.0
2018-Jul-12 19:26N 01°16' E 103°47'0 0.0
2018-Jul-12 18:59N 01°16' E 103°47'0 0.0
2018-Jul-12 18:29N 01°16' E 103°47'0 0.0
2018-Jul-12 17:59N 01°16' E 103°47'0 0.0
2018-Jul-12 17:29N 01°16' E 103°47'0 0.0
2018-Jul-12 16:59N 01°16' E 103°47'0 0.0
2018-Jul-12 16:29N 01°16' E 103°47'0 0.0
2018-Jul-12 15:56N 01°16' E 103°47'0 0.0
2018-Jul-12 15:28N 01°16' E 103°47'0 0.0
2018-Jul-12 14:59N 01°16' E 103°47'0 0.0
2018-Jul-12 14:29N 01°16' E 103°47'0 0.0
2018-Jul-12 13:59N 01°16' E 103°47'0 0.0
2018-Jul-12 13:29N 01°16' E 103°47'0 0.0
2018-Jul-12 12:58N 01°16' E 103°47'0 0.0
2018-Jul-12 12:29N 01°16' E 103°47'0 0.0
2018-Jul-12 11:59N 01°16' E 103°47'0 0.0
2018-Jul-12 11:28N 01°16' E 103°47'0 0.0
2018-Jul-12 10:58N 01°16' E 103°47'0 0.0
2018-Jul-12 10:29N 01°16' E 103°47'0 0.0
2018-Jul-12 09:59N 01°16' E 103°47'0 0.0
2018-Jul-12 09:29N 01°16' E 103°47'0 0.0
2018-Jul-12 08:58N 01°16' E 103°47'0 0.0
2018-Jul-12 08:29N 01°16' E 103°47'0 0.0
2018-Jul-12 07:58N 01°16' E 103°47'0 0.0
2018-Jul-12 07:28N 01°16' E 103°47'0 0.0
2018-Jul-12 06:58N 01°16' E 103°47'0 0.0
2018-Jul-12 06:29N 01°16' E 103°47'0 0.0
2018-Jul-12 05:59N 01°16' E 103°47'0 0.0
2018-Jul-12 05:28N 01°16' E 103°47'0 0.0
2018-Jul-12 04:59N 01°16' E 103°47'0 0.0
2018-Jul-12 04:29N 01°16' E 103°47'0 0.0
2018-Jul-12 03:58N 01°16' E 103°47'0 0.0
2018-Jul-12 03:29N 01°16' E 103°47'0 0.0
2018-Jul-12 02:59N 01°16' E 103°47'0 1.0
2018-Jul-12 02:30N 01°16' E 103°47'3 6.9
2018-Jul-12 02:01N 01°13' E 103°48'510.7
2018-Jul-12 01:31N 01°13' E 103°54'510.4
2018-Jul-12 01:00N 01°15' E 103°59'510.2
2018-Jul-12 00:30N 01°16' E 104°04'612.1
2018-Jul-12 00:00N 01°17' E 104°10'612.5
2018-Jul-11 23:30N 01°18' E 104°16'712.6
2018-Jul-11 22:56N 01°21' E 104°22'  
2018-Jul-08 21:43N 22°19' E 114°07'  

Dump ship's entire track history